Time;durP1;ratioP1;P1;durP2;ratioP2;P2;SDS_P1;SDS_P2;PMS_P1;PMS_P2;Temp;Humidity;BMP_temperature;BMP_pressure;BME280_temperature;BME280_humidity;BME280_pressure;Samples;Min_cycle;Max_cycle;Signal;HPM_P1;HPM_P2
2022/01/09 00:01:27;;;;;;;13.05;3.25;;;;;;;;;;5000250;28;20160;-78
2022/01/09 00:03:53;;;;;;;17.80;3.63;;;;;;;;;;5017029;28;20057;-78
2022/01/09 00:06:19;;;;;;;14.32;3.75;;;;;;;;;;5005167;28;20057;-79
2022/01/09 00:08:46;;;;;;;12.32;3.42;;;;;;;;;;5019931;28;20444;-79
2022/01/09 00:11:12;;;;;;;12.85;3.90;;;;;;;;;;5001038;28;20040;-77
2022/01/09 00:13:38;;;;;;;17.33;4.45;;;;;;;;;;5019844;28;20056;-77
2022/01/09 00:16:04;;;;;;;17.95;4.13;;;;;;;;;;5022454;28;20048;-77
2022/01/09 00:18:30;;;;;;;18.90;3.92;;;;;;;;;;5028472;28;20049;-77
2022/01/09 00:20:56;;;;;;;15.35;3.90;;;;;;;;;;5022326;28;20397;-78
2022/01/09 00:23:23;;;;;;;15.05;3.90;;;;;;;;;;5004183;28;20431;-77
2022/01/09 00:25:49;;;;;;;16.42;4.70;;;;;;;;;;5010141;28;20208;-78
2022/01/09 00:28:15;;;;;;;21.05;5.20;;;;;;;;;;5011410;28;20190;-78
2022/01/09 00:30:41;;;;;;;23.05;4.78;;;;;;;;;;5002630;28;20083;-78
2022/01/09 00:33:07;;;;;;;19.42;5.00;;;;;;;;;;5020134;28;20389;-79
2022/01/09 00:35:33;;;;;;;24.63;5.70;;;;;;;;;;5004540;28;20553;-78
2022/01/09 00:37:59;;;;;;;24.27;5.50;;;;;;;;;;5003579;28;20050;-78
2022/01/09 00:40:25;;;;;;;28.80;6.70;;;;;;;;;;5004866;28;20046;-78
2022/01/09 00:42:51;;;;;;;26.10;6.47;;;;;;;;;;5002763;28;20060;-78
2022/01/09 00:45:17;;;;;;;23.55;5.63;;;;;;;;;;5006965;28;20053;-78
2022/01/09 00:47:44;;;;;;;34.05;6.50;;;;;;;;;;5006721;28;20041;-78
2022/01/09 00:50:10;;;;;;;24.13;5.45;;;;;;;;;;5008009;28;20057;-78
2022/01/09 00:52:37;;;;;;;24.42;5.18;;;;;;;;;;5010512;28;20087;-78
2022/01/09 00:55:03;;;;;;;27.00;5.00;;;;;;;;;;5006608;28;20045;-78
2022/01/09 00:57:29;;;;;;;25.52;5.40;;;;;;;;;;5006054;28;20045;-78
2022/01/09 00:59:55;;;;;;;26.88;5.45;;;;;;;;;;5010540;28;20100;-78
2022/01/09 01:02:21;;;;;;;24.15;5.50;;;;;;;;;;5007846;28;20128;-78
2022/01/09 01:04:51;;;;;;;28.08;6.20;;;;;;;;;;5006590;28;20132;-78
2022/01/09 01:07:17;;;;;;;32.95;6.38;;;;;;;;;;5005427;28;20045;-78
2022/01/09 01:09:43;;;;;;;28.08;6.75;;;;;;;;;;5008308;28;20060;-78
2022/01/09 01:12:09;;;;;;;32.03;6.82;;;;;;;;;;5006333;28;20041;-78
2022/01/09 01:14:35;;;;;;;42.15;7.80;;;;;;;;;;5006342;28;20409;-78
2022/01/09 01:17:01;;;;;;;30.25;7.43;;;;;;;;;;5004942;28;20045;-78
2022/01/09 01:19:27;;;;;;;34.70;7.53;;;;;;;;;;5008152;28;20053;-78
2022/01/09 01:21:53;;;;;;;35.20;7.32;;;;;;;;;;5023083;28;20199;-78
2022/01/09 01:24:21;;;;;;;43.03;7.88;;;;;;;;;;5007253;28;20053;-78
2022/01/09 01:26:47;;;;;;;32.05;7.88;;;;;;;;;;5008797;28;20042;-78
2022/01/09 01:29:13;;;;;;;27.08;6.97;;;;;;;;;;5011470;28;20046;-78
2022/01/09 01:31:39;;;;;;;40.55;7.63;;;;;;;;;;5014773;28;20091;-78
2022/01/09 01:34:08;;;;;;;34.80;7.10;;;;;;;;;;5023510;28;20057;-78
2022/01/09 01:36:34;;;;;;;38.15;6.93;;;;;;;;;;5024978;28;20041;-78
2022/01/09 01:39:00;;;;;;;34.08;6.22;;;;;;;;;;5023582;28;20052;-78
2022/01/09 01:41:26;;;;;;;31.00;6.93;;;;;;;;;;5008085;28;20128;-78
2022/01/09 01:43:52;;;;;;;31.55;6.07;;;;;;;;;;5022667;28;20457;-78
2022/01/09 01:46:18;;;;;;;32.97;6.93;;;;;;;;;;5007331;28;20144;-78
2022/01/09 01:48:44;;;;;;;34.45;6.30;;;;;;;;;;5023555;28;20049;-78
2022/01/09 01:51:10;;;;;;;28.77;6.00;;;;;;;;;;5023371;28;20061;-77
2022/01/09 01:53:38;;;;;;;27.23;6.22;;;;;;;;;;5009114;28;20077;-77
2022/01/09 01:56:05;;;;;;;31.38;6.07;;;;;;;;;;5003939;28;20084;-78
2022/01/09 01:58:34;;;;;;;28.08;7.03;;;;;;;;;;5007585;28;20478;-78
2022/01/09 02:01:01;;;;;;;27.92;6.53;;;;;;;;;;5004700;28;20202;-77
2022/01/09 02:03:27;;;;;;;26.50;6.07;;;;;;;;;;5007215;28;20466;-78
2022/01/09 02:05:53;;;;;;;29.83;6.78;;;;;;;;;;5003998;28;20060;-78
2022/01/09 02:08:19;;;;;;;27.17;5.32;;;;;;;;;;5007345;28;20037;-78
2022/01/09 02:10:45;;;;;;;21.83;6.68;;;;;;;;;;5022242;28;20080;-77
2022/01/09 02:13:11;;;;;;;28.85;6.53;;;;;;;;;;5020362;28;20053;-78
2022/01/09 02:15:38;;;;;;;23.30;5.32;;;;;;;;;;5007516;28;20041;-78
2022/01/09 02:18:08;;;;;;;28.00;5.70;;;;;;;;;;5004952;28;20045;-78
2022/01/09 02:20:36;;;;;;;23.80;5.55;;;;;;;;;;5004945;28;20044;-78
2022/01/09 02:23:02;;;;;;;30.42;5.82;;;;;;;;;;5005184;28;20037;-78
2022/01/09 02:25:29;;;;;;;30.75;5.78;;;;;;;;;;5000456;28;20050;-77
2022/01/09 02:27:55;;;;;;;20.90;4.97;;;;;;;;;;5001825;28;20034;-78
2022/01/09 02:30:21;;;;;;;23.98;6.68;;;;;;;;;;5001504;28;20046;-78
2022/01/09 02:32:47;;;;;;;19.10;5.70;;;;;;;;;;4999209;28;20057;-78
2022/01/09 02:35:13;;;;;;;19.85;5.43;;;;;;;;;;5002007;28;20081;-77
2022/01/09 02:37:39;;;;;;;19.38;4.95;;;;;;;;;;5000966;28;20054;-78
2022/01/09 02:40:06;;;;;;;20.00;5.38;;;;;;;;;;5003144;28;21039;-78
2022/01/09 02:42:33;;;;;;;21.00;5.60;;;;;;;;;;5002909;28;20084;-78
2022/01/09 02:44:59;;;;;;;23.20;5.47;;;;;;;;;;5002803;28;20046;-78
2022/01/09 02:47:28;;;;;;;23.58;5.25;;;;;;;;;;5001136;28;20054;-78
2022/01/09 02:49:55;;;;;;;22.75;5.10;;;;;;;;;;5001708;28;20054;-78
2022/01/09 02:52:31;;;;;;;20.55;4.45;;;;;;;;;;5000113;28;20054;-78
2022/01/09 02:55:10;;;;;;;19.35;4.90;;;;;;;;;;5002995;28;20064;-78
2022/01/09 02:57:36;;;;;;;19.50;4.72;;;;;;;;;;5001725;28;20052;-79
2022/01/09 03:00:03;;;;;;;19.42;4.53;;;;;;;;;;5004251;28;20041;-78
2022/01/09 03:02:29;;;;;;;19.75;4.20;;;;;;;;;;5000829;28;20081;-77
2022/01/09 03:04:55;;;;;;;17.27;4.30;;;;;;;;;;5000457;28;20084;-78
2022/01/09 03:07:21;;;;;;;19.80;5.07;;;;;;;;;;4999278;28;20046;-78
2022/01/09 03:09:47;;;;;;;21.00;4.63;;;;;;;;;;5002841;28;20576;-78
2022/01/09 03:12:13;;;;;;;22.77;4.75;;;;;;;;;;4997874;28;20060;-78
2022/01/09 03:14:39;;;;;;;21.90;5.18;;;;;;;;;;5002301;28;20046;-78
2022/01/09 03:17:05;;;;;;;21.77;4.25;;;;;;;;;;5000330;28;20482;-78
2022/01/09 03:19:31;;;;;;;22.42;5.30;;;;;;;;;;5001575;28;20088;-77
2022/01/09 03:21:57;;;;;;;17.15;4.47;;;;;;;;;;5001168;28;20041;-78
2022/01/09 03:24:23;;;;;;;21.90;4.13;;;;;;;;;;5008395;28;20406;-78
2022/01/09 03:26:49;;;;;;;13.23;3.60;;;;;;;;;;5022616;28;20088;-78
2022/01/09 03:29:15;;;;;;;22.00;4.35;;;;;;;;;;5018482;28;20413;-78
2022/01/09 03:31:41;;;;;;;14.82;4.00;;;;;;;;;;5006236;28;20041;-78
2022/01/09 03:34:07;;;;;;;17.52;4.32;;;;;;;;;;5001030;28;20581;-77
2022/01/09 03:36:33;;;;;;;21.02;5.10;;;;;;;;;;5004843;28;20136;-77
2022/01/09 03:38:59;;;;;;;17.20;4.38;;;;;;;;;;5003346;28;20059;-78
2022/01/09 03:41:26;;;;;;;22.58;4.88;;;;;;;;;;5005988;28;20179;-78
2022/01/09 03:43:53;;;;;;;17.35;4.07;;;;;;;;;;5001013;28;20064;-78
2022/01/09 03:46:19;;;;;;;14.27;4.07;;;;;;;;;;5004456;28;20400;-78
2022/01/09 03:48:47;;;;;;;17.85;4.03;;;;;;;;;;5002904;28;20053;-78
2022/01/09 03:51:13;;;;;;;21.13;4.05;;;;;;;;;;5003490;28;20065;-77
2022/01/09 03:53:40;;;;;;;14.52;4.10;;;;;;;;;;5003263;28;20041;-78
2022/01/09 03:56:06;;;;;;;19.80;3.72;;;;;;;;;;5005047;28;20453;-78
2022/01/09 03:58:35;;;;;;;22.52;4.13;;;;;;;;;;5004950;28;20128;-77
2022/01/09 04:01:01;;;;;;;16.27;4.50;;;;;;;;;;5004338;28;20053;-78
2022/01/09 04:03:27;;;;;;;18.17;4.20;;;;;;;;;;5020888;28;20048;-78
2022/01/09 04:05:53;;;;;;;15.15;3.95;;;;;;;;;;5003894;28;20093;-79
2022/01/09 04:08:19;;;;;;;17.83;4.47;;;;;;;;;;5020833;28;20127;-78
2022/01/09 04:10:47;;;;;;;15.80;3.47;;;;;;;;;;5020457;28;20041;-78
2022/01/09 04:13:14;;;;;;;19.25;4.32;;;;;;;;;;5002884;28;20425;-78
2022/01/09 04:15:46;;;;;;;15.20;4.15;;;;;;;;;;5018835;28;20041;-79
2022/01/09 04:18:13;;;;;;;13.77;3.85;;;;;;;;;;5010105;28;20061;-78
2022/01/09 04:20:39;;;;;;;19.15;4.30;;;;;;;;;;5019113;28;20033;-78
2022/01/09 04:23:05;;;;;;;20.55;4.30;;;;;;;;;;5016501;28;20080;-78
2022/01/09 04:25:31;;;;;;;15.23;3.90;;;;;;;;;;5007994;28;20046;-78
2022/01/09 04:27:57;;;;;;;12.88;3.47;;;;;;;;;;5009126;28;20088;-78
2022/01/09 04:30:23;;;;;;;14.38;3.38;;;;;;;;;;5007369;28;20489;-78
2022/01/09 04:32:49;;;;;;;13.45;3.47;;;;;;;;;;5003755;28;20213;-78
2022/01/09 04:35:15;;;;;;;12.60;3.67;;;;;;;;;;5003868;28;20038;-79
2022/01/09 04:37:41;;;;;;;12.20;3.38;;;;;;;;;;5002223;28;20144;-78
2022/01/09 04:40:10;;;;;;;12.45;3.60;;;;;;;;;;5002373;28;20050;-79
2022/01/09 04:42:43;;;;;;;16.38;3.58;;;;;;;;;;5005831;28;20065;-79
2022/01/09 04:45:11;;;;;;;16.10;4.20;;;;;;;;;;5001208;28;20191;-79
2022/01/09 04:47:40;;;;;;;18.27;3.72;;;;;;;;;;5004815;28;20092;-78
2022/01/09 04:50:08;;;;;;;15.50;4.15;;;;;;;;;;5003307;28;20056;-78
2022/01/09 04:52:38;;;;;;;13.25;3.40;;;;;;;;;;5001543;28;20156;-79
2022/01/09 04:55:04;;;;;;;20.42;4.40;;;;;;;;;;5004163;28;20049;-78
2022/01/09 04:57:30;;;;;;;12.93;3.67;;;;;;;;;;5004224;28;20146;-78
2022/01/09 04:59:56;;;;;;;16.13;4.05;;;;;;;;;;5004647;28;20520;-78
2022/01/09 05:02:22;;;;;;;17.58;3.47;;;;;;;;;;5003293;28;20050;-79
2022/01/09 05:04:48;;;;;;;13.27;3.90;;;;;;;;;;5002885;28;20068;-78
2022/01/09 05:07:14;;;;;;;18.33;4.13;;;;;;;;;;5002840;28;20517;-79
2022/01/09 05:09:40;;;;;;;12.65;3.72;;;;;;;;;;5002982;28;20107;-78
2022/01/09 05:12:06;;;;;;;17.73;4.35;;;;;;;;;;5003070;28;20144;-78
2022/01/09 05:14:32;;;;;;;16.52;3.85;;;;;;;;;;5005920;28;20045;-78
2022/01/09 05:16:58;;;;;;;20.25;4.22;;;;;;;;;;5003161;28;20049;-78
2022/01/09 05:19:28;;;;;;;16.33;4.05;;;;;;;;;;5001621;28;20737;-78
2022/01/09 05:21:55;;;;;;;14.50;3.67;;;;;;;;;;5003501;28;20390;-77
2022/01/09 05:24:24;;;;;;;14.15;3.50;;;;;;;;;;5001317;28;20058;-79
2022/01/09 05:26:50;;;;;;;14.98;3.80;;;;;;;;;;5001755;28;20077;-79
2022/01/09 05:29:16;;;;;;;17.35;3.60;;;;;;;;;;5002794;28;20473;-79
2022/01/09 05:31:44;;;;;;;12.27;3.40;;;;;;;;;;5003087;28;20046;-78
2022/01/09 05:34:10;;;;;;;11.77;3.40;;;;;;;;;;5001800;28;20132;-78
2022/01/09 05:36:39;;;;;;;11.93;3.13;;;;;;;;;;5004430;28;20077;-79
2022/01/09 05:39:05;;;;;;;16.88;3.58;;;;;;;;;;5006012;28;20084;-78
2022/01/09 05:41:31;;;;;;;17.60;4.25;;;;;;;;;;5002113;28;20041;-78
2022/01/09 05:43:57;;;;;;;17.80;3.53;;;;;;;;;;5001582;28;20042;-78
2022/01/09 05:46:23;;;;;;;13.55;3.58;;;;;;;;;;4999548;28;20048;-78
2022/01/09 05:48:49;;;;;;;13.32;3.53;;;;;;;;;;5001645;28;20061;-78
2022/01/09 05:51:15;;;;;;;14.13;2.97;;;;;;;;;;5003587;28;20054;-78
2022/01/09 05:53:41;;;;;;;14.57;3.65;;;;;;;;;;5001991;28;20407;-79
2022/01/09 05:56:07;;;;;;;17.60;4.00;;;;;;;;;;5002164;28;20053;-78
2022/01/09 05:58:34;;;;;;;14.05;3.20;;;;;;;;;;5005802;28;20042;-78
2022/01/09 06:01:00;;;;;;;15.10;3.88;;;;;;;;;;5006068;28;20064;-78
2022/01/09 06:03:26;;;;;;;17.02;3.92;;;;;;;;;;5005365;28;20041;-78
2022/01/09 06:05:52;;;;;;;17.08;3.70;;;;;;;;;;4998641;28;20509;-78
2022/01/09 06:08:18;;;;;;;11.05;3.35;;;;;;;;;;5002181;28;20049;-78
2022/01/09 06:10:44;;;;;;;15.13;3.00;;;;;;;;;;5001625;28;20132;-78
2022/01/09 06:13:10;;;;;;;15.32;3.20;;;;;;;;;;5000306;28;20050;-78
2022/01/09 06:15:36;;;;;;;13.32;3.00;;;;;;;;;;5004079;28;20048;-78
2022/01/09 06:18:06;;;;;;;9.98;2.72;;;;;;;;;;5002754;28;20497;-78
2022/01/09 06:20:32;;;;;;;16.92;3.47;;;;;;;;;;5002719;28;20050;-78
2022/01/09 06:22:58;;;;;;;12.80;3.17;;;;;;;;;;5003930;28;20041;-78
2022/01/09 06:25:24;;;;;;;8.45;2.70;;;;;;;;;;5021767;28;20140;-78
2022/01/09 06:27:50;;;;;;;12.15;3.00;;;;;;;;;;5000493;28;20064;-78
2022/01/09 06:30:16;;;;;;;10.95;2.80;;;;;;;;;;5003800;28;20049;-78
2022/01/09 06:32:42;;;;;;;9.32;3.28;;;;;;;;;;5007227;28;20056;-78
2022/01/09 06:35:10;;;;;;;13.57;3.20;;;;;;;;;;5021276;28;20045;-78
2022/01/09 06:37:36;;;;;;;13.32;3.17;;;;;;;;;;5017783;28;20128;-78
2022/01/09 06:40:02;;;;;;;11.82;2.88;;;;;;;;;;5006065;28;20054;-79
2022/01/09 06:42:28;;;;;;;8.65;2.95;;;;;;;;;;5020914;28;20111;-78
2022/01/09 06:44:54;;;;;;;14.63;3.30;;;;;;;;;;5004418;28;20037;-78
2022/01/09 06:47:20;;;;;;;11.98;3.50;;;;;;;;;;5006566;28;20034;-78
2022/01/09 06:49:47;;;;;;;11.38;3.05;;;;;;;;;;5001815;28;20101;-78
2022/01/09 06:52:13;;;;;;;10.77;3.28;;;;;;;;;;5004383;28;20048;-79
2022/01/09 06:54:39;;;;;;;12.15;3.35;;;;;;;;;;5005201;28;20091;-78
2022/01/09 06:57:05;;;;;;;17.67;3.60;;;;;;;;;;5004861;28;20560;-78
2022/01/09 06:59:31;;;;;;;12.10;2.97;;;;;;;;;;5021543;28;20041;-78
2022/01/09 07:01:57;;;;;;;12.27;3.33;;;;;;;;;;5025349;28;20551;-78
2022/01/09 07:04:24;;;;;;;11.13;3.90;;;;;;;;;;5006957;28;20129;-78
2022/01/09 07:06:50;;;;;;;12.32;3.10;;;;;;;;;;5004713;28;20048;-78
2022/01/09 07:09:16;;;;;;;14.77;4.22;;;;;;;;;;5007266;28;20041;-78
2022/01/09 07:11:42;;;;;;;12.18;3.50;;;;;;;;;;5002826;28;20041;-78
2022/01/09 07:14:08;;;;;;;16.00;3.20;;;;;;;;;;5004551;28;20163;-78
2022/01/09 07:16:34;;;;;;;10.82;3.17;;;;;;;;;;5022776;28;20050;-79
2022/01/09 07:19:00;;;;;;;12.63;3.75;;;;;;;;;;5007781;28;20047;-78
2022/01/09 07:21:26;;;;;;;17.92;4.18;;;;;;;;;;5005939;28;20081;-78
2022/01/09 07:23:52;;;;;;;15.40;3.60;;;;;;;;;;5005077;28;20076;-78
2022/01/09 07:26:18;;;;;;;10.70;3.47;;;;;;;;;;5004683;28;20708;-79
2022/01/09 07:28:44;;;;;;;8.60;2.95;;;;;;;;;;5003009;28;20072;-78
2022/01/09 07:31:10;;;;;;;9.52;2.72;;;;;;;;;;5004182;28;20038;-79
2022/01/09 07:33:38;;;;;;;16.48;4.00;;;;;;;;;;5004753;28;20087;-79
2022/01/09 07:36:04;;;;;;;12.27;4.00;;;;;;;;;;5003684;28;20111;-79
2022/01/09 07:38:37;;;;;;;14.07;3.28;;;;;;;;;;5004569;28;20133;-78
2022/01/09 07:41:03;;;;;;;20.75;3.47;;;;;;;;;;5001621;28;20481;-78
2022/01/09 07:43:29;;;;;;;13.85;3.35;;;;;;;;;;5006067;28;20048;-78
2022/01/09 07:45:55;;;;;;;10.15;3.38;;;;;;;;;;5001704;28;20041;-78
2022/01/09 07:48:23;;;;;;;14.80;4.20;;;;;;;;;;5006111;28;20041;-79
2022/01/09 07:50:49;;;;;;;11.85;3.33;;;;;;;;;;5003892;28;20049;-78
2022/01/09 07:53:17;;;;;;;13.15;4.32;;;;;;;;;;5003950;28;20042;-78
2022/01/09 07:55:43;;;;;;;15.32;4.65;;;;;;;;;;5002145;28;20049;-79
2022/01/09 07:58:10;;;;;;;17.45;4.18;;;;;;;;;;5003406;28;20142;-79
2022/01/09 08:00:36;;;;;;;15.52;4.30;;;;;;;;;;5001616;28;20111;-78
2022/01/09 08:03:01;;;;;;;6.78;2.75;;;;;;;;;;5005096;28;20092;-78
2022/01/09 08:05:28;;;;;;;6.45;2.67;;;;;;;;;;5005491;28;20572;-78
2022/01/09 08:07:54;;;;;;;14.93;2.70;;;;;;;;;;5001208;28;20132;-78
2022/01/09 08:10:20;;;;;;;11.73;2.50;;;;;;;;;;5008687;28;20096;-78
2022/01/09 08:12:46;;;;;;;10.02;2.58;;;;;;;;;;5019449;28;20041;-79
2022/01/09 08:15:12;;;;;;;8.88;2.05;;;;;;;;;;5022513;28;20045;-79
2022/01/09 08:17:39;;;;;;;7.68;2.00;;;;;;;;;;5022105;28;20058;-79
2022/01/09 08:20:05;;;;;;;9.85;2.38;;;;;;;;;;5004466;28;20037;-78
2022/01/09 08:22:32;;;;;;;11.32;2.30;;;;;;;;;;5003203;28;20045;-79
2022/01/09 08:24:58;;;;;;;5.60;2.08;;;;;;;;;;5003295;28;20132;-79
2022/01/09 08:27:24;;;;;;;9.30;3.10;;;;;;;;;;5004646;28;20053;-79
2022/01/09 08:29:50;;;;;;;6.65;2.72;;;;;;;;;;5001426;28;21204;-78
2022/01/09 08:32:16;;;;;;;7.28;2.35;;;;;;;;;;5003215;28;20045;-79
2022/01/09 08:34:42;;;;;;;8.55;2.13;;;;;;;;;;5018406;28;20511;-78
2022/01/09 08:37:11;;;;;;;9.95;2.33;;;;;;;;;;5017871;28;20045;-78
2022/01/09 08:39:38;;;;;;;11.48;2.65;;;;;;;;;;5001696;28;20085;-79
2022/01/09 08:42:04;;;;;;;12.02;2.10;;;;;;;;;;5003043;28;20515;-78
2022/01/09 08:44:30;;;;;;;7.78;1.98;;;;;;;;;;5026366;28;20095;-78
2022/01/09 08:46:56;;;;;;;7.50;2.10;;;;;;;;;;5022558;28;20038;-78
2022/01/09 08:49:22;;;;;;;5.75;1.77;;;;;;;;;;5001691;28;20056;-77
2022/01/09 08:51:48;;;;;;;7.32;2.00;;;;;;;;;;5002667;28;20053;-79
2022/01/09 08:54:14;;;;;;;6.28;1.83;;;;;;;;;;5002254;28;20111;-78
2022/01/09 08:56:41;;;;;;;7.15;2.00;;;;;;;;;;5001426;28;20041;-78
2022/01/09 08:59:07;;;;;;;9.80;2.05;;;;;;;;;;5018728;28;20053;-77
2022/01/09 09:01:33;;;;;;;15.65;3.05;;;;;;;;;;5022236;28;20037;-78
2022/01/09 09:03:59;;;;;;;8.90;2.70;;;;;;;;;;5003118;28;20045;-78
2022/01/09 09:06:25;;;;;;;10.25;3.00;;;;;;;;;;5006936;28;20397;-78
2022/01/09 09:08:51;;;;;;;9.57;2.75;;;;;;;;;;5004908;28;20115;-78
2022/01/09 09:11:17;;;;;;;9.57;2.53;;;;;;;;;;5005099;28;20171;-78
2022/01/09 09:13:43;;;;;;;8.57;2.35;;;;;;;;;;5007532;28;20366;-78
2022/01/09 09:16:10;;;;;;;10.90;3.00;;;;;;;;;;5025273;28;20493;-78
2022/01/09 09:18:36;;;;;;;13.02;3.20;;;;;;;;;;5029800;28;20034;-77
2022/01/09 09:21:02;;;;;;;10.95;2.88;;;;;;;;;;5011693;28;20225;-77
2022/01/09 09:23:28;;;;;;;17.10;3.25;;;;;;;;;;5012907;28;20049;-78
2022/01/09 09:25:54;;;;;;;8.93;3.20;;;;;;;;;;5017805;28;20452;-77
2022/01/09 09:28:20;;;;;;;10.85;3.15;;;;;;;;;;5031611;28;20046;-77
2022/01/09 09:30:46;;;;;;;10.07;3.17;;;;;;;;;;5010262;28;20053;-77
2022/01/09 09:33:12;;;;;;;10.25;3.15;;;;;;;;;;5026636;28;20048;-76
2022/01/09 09:35:38;;;;;;;13.88;3.30;;;;;;;;;;5025249;28;20124;-77
2022/01/09 09:38:05;;;;;;;10.30;2.80;;;;;;;;;;5010331;28;20045;-77
2022/01/09 09:40:31;;;;;;;9.25;2.80;;;;;;;;;;5008200;28;20045;-78
2022/01/09 09:42:57;;;;;;;7.80;2.13;;;;;;;;;;5028146;28;20041;-77
2022/01/09 09:45:23;;;;;;;7.35;2.20;;;;;;;;;;5008449;28;20047;-80
2022/01/09 09:47:50;;;;;;;6.18;2.20;;;;;;;;;;5007259;28;20052;-79
2022/01/09 09:50:16;;;;;;;8.93;2.83;;;;;;;;;;5012273;28;20063;-77
2022/01/09 09:52:46;;;;;;;10.88;2.65;;;;;;;;;;5029564;28;20481;-79
2022/01/09 09:55:12;;;;;;;8.85;2.80;;;;;;;;;;5024742;28;20042;-79
2022/01/09 09:57:38;;;;;;;6.68;2.47;;;;;;;;;;5007763;28;20512;-77
2022/01/09 10:00:13;;;;;;;8.50;2.20;;;;;;;;;;5011775;28;20508;-76
2022/01/09 10:02:43;;;;;;;7.88;2.17;;;;;;;;;;5011161;28;20075;-76
2022/01/09 10:05:10;;;;;;;5.55;2.40;;;;;;;;;;5010201;28;20060;-76
2022/01/09 10:07:36;;;;;;;10.07;2.40;;;;;;;;;;5012135;28;20124;-75
2022/01/09 10:10:09;;;;;;;11.45;2.65;;;;;;;;;;5011681;28;20561;-76
2022/01/09 10:12:35;;;;;;;;;;;;;;;;;;5014217;28;20033;-82
2022/01/09 10:15:03;;;;;;;9.55;2.53;;;;;;;;;;5012387;28;19928;-81
2022/01/09 10:17:30;;;;;;;8.57;3.03;;;;;;;;;;5011108;28;20045;-80
2022/01/09 10:19:56;;;;;;;11.52;2.72;;;;;;;;;;5011988;28;20046;-79
2022/01/09 10:22:32;;;;;;;12.15;3.05;;;;;;;;;;5010984;28;20037;-79
2022/01/09 10:24:59;;;;;;;10.68;2.72;;;;;;;;;;5010471;28;20068;-79
2022/01/09 10:27:34;;;;;;;7.00;2.35;;;;;;;;;;5008048;28;20481;-79
2022/01/09 10:30:02;;;;;;;8.23;2.83;;;;;;;;;;5005771;28;20045;-78
2022/01/09 10:32:32;;;;;;;6.60;2.20;;;;;;;;;;5008003;28;20046;-80
2022/01/09 10:35:05;;;;;;;5.32;2.20;;;;;;;;;;5006979;28;20072;-78
2022/01/09 10:37:31;;;;;;;4.97;1.85;;;;;;;;;;5007450;28;20049;-79
2022/01/09 10:40:00;;;;;;;9.90;2.47;;;;;;;;;;5011388;28;20049;-79
2022/01/09 10:42:27;;;;;;;5.72;2.17;;;;;;;;;;5007583;28;20050;-79
2022/01/09 10:44:53;;;;;;;8.10;3.03;;;;;;;;;;5008204;28;20064;-79
2022/01/09 10:47:19;;;;;;;5.75;2.58;;;;;;;;;;5007727;28;20042;-78
2022/01/09 10:49:47;;;;;;;9.60;2.65;;;;;;;;;;5004837;28;20124;-78
2022/01/09 10:52:13;;;;;;;7.57;2.67;;;;;;;;;;5005622;28;20049;-79
2022/01/09 10:54:41;;;;;;;9.68;2.67;;;;;;;;;;5007702;28;20141;-77
2022/01/09 10:57:27;;;;;;;7.93;2.15;;;;;;;;;;5006050;28;20085;-79
2022/01/09 10:59:53;;;;;;;8.93;2.88;;;;;;;;;;5006835;28;20054;-79
2022/01/09 11:02:19;;;;;;;5.30;1.90;;;;;;;;;;5009220;28;20045;-79
2022/01/09 11:04:47;;;;;;;5.25;1.80;;;;;;;;;;5007057;28;20120;-79
2022/01/09 11:07:13;;;;;;;4.72;1.92;;;;;;;;;;5021993;28;20053;-80
2022/01/09 11:09:42;;;;;;;5.90;2.33;;;;;;;;;;5008211;28;20054;-80
2022/01/09 11:12:09;;;;;;;10.65;2.13;;;;;;;;;;5005586;28;20084;-79
2022/01/09 11:14:41;;;;;;;7.82;2.13;;;;;;;;;;5005397;28;20506;-79
2022/01/09 11:17:08;;;;;;;8.63;2.55;;;;;;;;;;5008237;28;20053;-79
2022/01/09 11:19:34;;;;;;;6.05;1.77;;;;;;;;;;5008824;28;20409;-79
2022/01/09 11:22:02;;;;;;;4.47;2.03;;;;;;;;;;5006713;28;20041;-79
2022/01/09 11:24:46;;;;;;;5.90;2.40;;;;;;;;;;5003718;28;20061;-79
2022/01/09 11:27:20;;;;;;;8.25;1.67;;;;;;;;;;5005818;28;20054;-80
2022/01/09 11:29:58;;;;;;;4.45;1.50;;;;;;;;;;5005385;28;20046;-80
2022/01/09 11:32:43;;;;;;;3.53;1.42;;;;;;;;;;5004274;28;20129;-79
2022/01/09 11:35:28;;;;;;;3.28;1.60;;;;;;;;;;5000406;28;20050;-79
2022/01/09 11:38:00;;;;;;;7.43;1.75;;;;;;;;;;5008716;28;20042;-80
2022/01/09 11:40:30;;;;;;;3.47;1.70;;;;;;;;;;5007758;28;20497;-80
2022/01/09 11:43:00;;;;;;;5.18;1.45;;;;;;;;;;5009026;28;20040;-80
2022/01/09 11:45:43;;;;;;;4.68;1.70;;;;;;;;;;5006568;28;20065;-80
2022/01/09 11:48:11;;;;;;;5.03;1.50;;;;;;;;;;5005768;28;20042;-79
2022/01/09 11:50:57;;;;;;;3.85;1.33;;;;;;;;;;5000129;28;20050;-78
2022/01/09 11:53:24;;;;;;;5.55;1.65;;;;;;;;;;5003073;28;20050;-79
2022/01/09 11:55:50;;;;;;;5.95;1.55;;;;;;;;;;5004864;28;21200;-79
2022/01/09 11:58:20;;;;;;;5.18;2.03;;;;;;;;;;5000992;28;20125;-84
2022/01/09 12:00:46;;;;;;;4.75;2.03;;;;;;;;;;5003150;28;20081;-79
2022/01/09 12:03:28;;;;;;;6.95;2.35;;;;;;;;;;5006635;28;20104;-78
2022/01/09 12:06:08;;;;;;;6.28;2.20;;;;;;;;;;5004348;28;20078;-78
2022/01/09 12:08:52;;;;;;;8.98;2.72;;;;;;;;;;5005158;28;20062;-78
2022/01/09 12:11:18;;;;;;;9.07;2.65;;;;;;;;;;5004612;28;20614;-78
2022/01/09 12:13:47;;;;;;;7.15;2.53;;;;;;;;;;5007667;28;20129;-78
2022/01/09 12:16:32;;;;;;;6.00;2.10;;;;;;;;;;5008302;28;20058;-78
2022/01/09 12:18:58;;;;;;;8.73;2.70;;;;;;;;;;5008538;28;20405;-78
2022/01/09 12:21:39;;;;;;;9.52;2.58;;;;;;;;;;5003439;28;20042;-78
2022/01/09 12:24:24;;;;;;;8.02;2.95;;;;;;;;;;5005685;28;20141;-78
2022/01/09 12:26:50;;;;;;;10.10;2.97;;;;;;;;;;5009063;28;20056;-76
2022/01/09 12:29:39;;;;;;;15.57;2.97;;;;;;;;;;5007359;28;20520;-75
2022/01/09 12:32:25;;;;;;;6.05;2.80;;;;;;;;;;5008274;28;20072;-75
2022/01/09 12:35:12;;;;;;;10.27;2.90;;;;;;;;;;4999514;28;20057;-75
2022/01/09 12:37:38;;;;;;;12.18;3.20;;;;;;;;;;5005343;28;20088;-75
2022/01/09 12:40:04;;;;;;;14.23;3.15;;;;;;;;;;4991313;28;20045;-78
2022/01/09 12:42:30;;;;;;;12.32;3.80;;;;;;;;;;4992713;28;20056;-78
2022/01/09 12:44:57;;;;;;;12.57;2.85;;;;;;;;;;4992549;28;20049;-79
2022/01/09 12:47:22;;;;;;;8.55;2.95;;;;;;;;;;4998631;28;20419;-80
2022/01/09 12:49:49;;;;;;;8.20;2.22;;;;;;;;;;4993325;28;20042;-80
2022/01/09 12:52:21;;;;;;;8.02;2.70;;;;;;;;;;4992643;28;20520;-77
2022/01/09 12:55:02;;;;;;;5.67;1.90;;;;;;;;;;5012557;28;20058;-77
2022/01/09 12:57:31;;;;;;;5.97;1.92;;;;;;;;;;5010268;28;20049;-79
2022/01/09 13:00:06;;;;;;;8.10;2.22;;;;;;;;;;4992906;28;20058;-78
2022/01/09 13:15:46;;;;;;;9.85;2.95;;;;;;;;;;5118864;23;20099;-76
2022/01/09 13:18:12;;;;;;;5.82;2.22;;;;;;;;;;5010176;28;20060;-76
2022/01/09 13:20:38;;;;;;;13.32;3.10;;;;;;;;;;5020417;28;20050;-75
2022/01/09 13:23:11;;;;;;;8.48;2.50;;;;;;;;;;5012181;28;20068;-79
2022/01/09 13:46:20;;;;;;;4.90;1.90;;;;;;;;;;5472179;22;21913;-79
2022/01/09 13:48:48;;;;;;;7.75;2.95;;;;;;;;;;5014384;28;20049;-79
2022/01/09 13:53:48;;;;;;;;;;;;;;;;;;5535431;22;20045;-84
2022/01/09 13:56:17;;;;;;;7.97;2.70;;;;;;;;;;5010633;28;20012;-84
2022/01/09 13:58:43;;;;;;;5.00;1.77;;;;;;;;;;5004801;28;20046;-80
2022/01/09 14:01:09;;;;;;;9.13;2.30;;;;;;;;;;5007668;28;20100;-80
2022/01/09 14:03:35;;;;;;;9.88;2.35;;;;;;;;;;5004584;28;20445;-79
2022/01/09 14:06:01;;;;;;;11.30;2.70;;;;;;;;;;5001413;28;20056;-79
2022/01/09 14:08:34;;;;;;;9.38;3.10;;;;;;;;;;5000452;28;20045;-77
2022/01/09 14:11:05;;;;;;;10.65;3.08;;;;;;;;;;5021863;28;20050;-79
2022/01/09 14:13:37;;;;;;;9.55;2.55;;;;;;;;;;5006925;28;20152;-79
2022/01/09 14:16:10;;;;;;;9.90;2.75;;;;;;;;;;5022701;28;20064;-80
2022/01/09 14:18:37;;;;;;;7.38;2.03;;;;;;;;;;4987898;28;20061;-79
2022/01/09 14:21:10;;;;;;;10.10;2.90;;;;;;;;;;4987516;28;20615;-79
2022/01/09 14:23:40;;;;;;;5.38;2.22;;;;;;;;;;5011646;28;20044;-80
2022/01/09 14:26:07;;;;;;;5.55;2.10;;;;;;;;;;5007373;28;20042;-79
2022/01/09 14:28:33;;;;;;;10.05;2.72;;;;;;;;;;5005045;28;20056;-80
2022/01/09 14:31:06;;;;;;;9.52;2.80;;;;;;;;;;5006010;28;20045;-80
2022/01/09 14:33:32;;;;;;;9.75;2.75;;;;;;;;;;5010621;28;20089;-81
2022/01/09 14:36:05;;;;;;;8.13;3.10;;;;;;;;;;5008986;28;20045;-79
2022/01/09 14:38:33;;;;;;;8.45;2.83;;;;;;;;;;5006030;28;20084;-80
2022/01/09 14:41:03;;;;;;;11.07;3.00;;;;;;;;;;5022435;28;20519;-80
2022/01/09 14:43:30;;;;;;;11.93;2.90;;;;;;;;;;5023324;28;20132;-80
2022/01/09 14:45:57;;;;;;;8.93;3.00;;;;;;;;;;5027090;28;20042;-80
2022/01/09 14:48:25;;;;;;;11.18;3.25;;;;;;;;;;5009787;28;20045;-80
2022/01/09 14:50:52;;;;;;;9.73;2.95;;;;;;;;;;5026923;28;20103;-79
2022/01/09 14:53:18;;;;;;;8.02;2.78;;;;;;;;;;5027745;28;20081;-79
2022/01/09 14:55:45;;;;;;;9.88;2.67;;;;;;;;;;5026878;28;20057;-79
2022/01/09 14:58:12;;;;;;;9.07;2.33;;;;;;;;;;5024527;28;20042;-79
2022/01/09 15:00:38;;;;;;;8.15;2.60;;;;;;;;;;5008209;28;20056;-80
2022/01/09 15:03:05;;;;;;;10.25;2.55;;;;;;;;;;5026540;28;20405;-79
2022/01/09 15:05:31;;;;;;;8.90;2.60;;;;;;;;;;5008706;28;20049;-80
2022/01/09 15:08:00;;;;;;;10.57;2.38;;;;;;;;;;5008315;28;20132;-79
2022/01/09 15:10:27;;;;;;;9.40;2.50;;;;;;;;;;5025781;28;20068;-79
2022/01/09 15:12:56;;;;;;;7.97;2.10;;;;;;;;;;4996224;28;20041;-80
2022/01/09 15:15:22;;;;;;;11.75;2.90;;;;;;;;;;5020986;28;20059;-78